createdAt,value
2022-12-20T00:01:22.351Z,10.34
2022-12-20T00:03:57.080Z,10.42
2022-12-20T00:06:30.511Z,10.43
2022-12-20T00:09:05.072Z,10.47
2022-12-20T00:11:41.075Z,10.34
2022-12-20T00:14:13.862Z,10.21
2022-12-20T00:16:47.978Z,10.38
2022-12-20T00:19:20.859Z,10.44
2022-12-20T00:21:53.884Z,10.35
2022-12-20T00:24:26.697Z,10.37
2022-12-20T00:27:01.716Z,10.30
2022-12-20T00:29:35.922Z,10.40
2022-12-20T00:32:10.286Z,10.38
2022-12-20T00:34:43.308Z,10.36
2022-12-20T00:37:17.980Z,10.43
2022-12-20T00:39:50.892Z,10.50
2022-12-20T00:42:23.996Z,10.50
2022-12-20T00:44:56.989Z,10.50
2022-12-20T00:47:31.207Z,10.60
2022-12-20T00:50:04.144Z,10.52
2022-12-20T00:52:36.998Z,10.47
2022-12-20T00:55:13.175Z,10.54
2022-12-20T00:57:48.343Z,10.45
2022-12-20T01:00:22.422Z,10.41
2022-12-20T01:02:56.773Z,10.47
2022-12-20T01:05:29.805Z,10.62
2022-12-20T01:08:02.844Z,10.59
2022-12-20T01:10:35.979Z,10.54
2022-12-20T01:13:09.098Z,10.56
2022-12-20T01:15:41.838Z,10.58
2022-12-20T01:18:16.626Z,10.64
2022-12-20T01:20:50.458Z,10.60
2022-12-20T01:23:23.181Z,10.52
2022-12-20T01:25:56.163Z,10.49
2022-12-20T01:28:29.452Z,10.63
2022-12-20T01:31:02.368Z,10.59
2022-12-20T01:33:37.060Z,10.59
2022-12-20T01:36:13.564Z,10.65
2022-12-20T01:38:47.047Z,10.61
2022-12-20T01:41:21.990Z,10.58
2022-12-20T01:43:57.612Z,10.62
2022-12-20T01:46:32.636Z,10.53
2022-12-20T01:49:15.707Z,10.50
2022-12-20T01:51:53.270Z,10.67
2022-12-20T01:54:31.875Z,10.62
2022-12-20T01:57:07.772Z,10.65
2022-12-20T01:59:50.601Z,10.61
2022-12-20T02:02:24.718Z,10.56
2022-12-20T02:04:59.328Z,10.64
2022-12-20T02:07:35.147Z,10.63
2022-12-20T02:10:11.256Z,10.68
2022-12-20T02:12:46.036Z,10.68
2022-12-20T02:15:39.006Z,10.72
2022-12-20T02:18:23.312Z,10.63
2022-12-20T02:21:25.272Z,10.60
2022-12-20T02:24:49.374Z,10.71
2022-12-20T02:27:50.103Z,10.71
2022-12-20T02:30:27.846Z,10.75
2022-12-20T02:33:03.790Z,10.76
2022-12-20T02:35:40.357Z,10.76
2022-12-20T02:38:31.253Z,10.72
2022-12-20T02:41:10.936Z,10.68
2022-12-20T02:44:04.005Z,10.64
2022-12-20T02:46:39.637Z,10.66
2022-12-20T02:49:16.617Z,10.64
2022-12-20T02:52:04.517Z,10.69
2022-12-20T02:54:38.787Z,10.75
2022-12-20T02:57:17.774Z,10.80
2022-12-20T02:59:59.120Z,10.82
2022-12-20T03:02:50.409Z,10.83
2022-12-20T03:05:26.389Z,10.71
2022-12-20T03:08:00.783Z,10.84
2022-12-20T03:10:33.809Z,10.85
2022-12-20T03:13:06.856Z,10.83
2022-12-20T03:15:41.334Z,10.83
2022-12-20T03:18:15.663Z,10.80
2022-12-20T03:20:48.476Z,10.79
2022-12-20T03:23:22.218Z,10.84
2022-12-20T03:25:55.496Z,10.83
2022-12-20T03:28:55.051Z,10.83
2022-12-20T03:31:32.473Z,10.85
2022-12-20T03:34:07.519Z,10.73
2022-12-20T03:36:41.151Z,10.86
2022-12-20T03:39:13.934Z,10.82
2022-12-20T03:41:47.270Z,10.73
2022-12-20T03:44:25.103Z,10.75
2022-12-20T03:46:58.636Z,10.80
2022-12-20T03:49:33.042Z,10.75
2022-12-20T03:52:06.641Z,10.85
2022-12-20T03:54:39.699Z,10.84
2022-12-20T03:57:23.309Z,10.76
2022-12-20T04:00:01.270Z,10.78
2022-12-20T04:02:38.472Z,10.82
2022-12-20T04:05:13.533Z,10.81
2022-12-20T04:07:46.323Z,10.91
2022-12-20T04:10:19.297Z,10.95
2022-12-20T04:12:52.954Z,10.82
2022-12-20T04:15:26.150Z,10.79
2022-12-20T04:18:00.136Z,10.91
2022-12-20T04:20:34.979Z,10.94
2022-12-20T04:23:19.658Z,10.89
2022-12-20T04:25:57.021Z,10.88
2022-12-20T04:28:30.527Z,10.85
2022-12-20T04:31:04.251Z,11.00
2022-12-20T04:33:41.619Z,10.98
2022-12-20T04:36:18.716Z,11.02
2022-12-20T04:38:51.671Z,10.97
2022-12-20T04:41:24.510Z,11.03
2022-12-20T04:44:03.177Z,11.08
2022-12-20T04:46:42.513Z,11.09
2022-12-20T04:49:19.529Z,11.05
2022-12-20T04:51:55.119Z,11.08
2022-12-20T04:54:27.713Z,11.01
2022-12-20T04:57:05.688Z,11.08
2022-12-20T04:59:38.904Z,11.10
2022-12-20T05:02:11.740Z,11.25
2022-12-20T05:04:58.173Z,11.14
2022-12-20T05:07:32.699Z,11.20
2022-12-20T05:10:06.422Z,11.20
2022-12-20T05:12:39.328Z,11.19
2022-12-20T05:15:14.459Z,11.22
2022-12-20T05:17:48.774Z,11.21
2022-12-20T05:20:21.889Z,11.25
2022-12-20T05:23:13.519Z,11.17
2022-12-20T05:26:07.777Z,11.17
2022-12-20T05:28:41.058Z,11.20
2022-12-20T05:31:14.071Z,11.22
2022-12-20T05:33:46.959Z,11.20
2022-12-20T05:36:21.762Z,11.16
2022-12-20T05:39:03.397Z,11.18
2022-12-20T05:41:37.780Z,11.15
2022-12-20T05:44:12.353Z,11.10
2022-12-20T05:46:49.710Z,11.11
2022-12-20T05:49:27.897Z,11.06
2022-12-20T05:52:02.800Z,11.14
2022-12-20T05:54:37.422Z,11.16
2022-12-20T05:57:22.689Z,11.18
2022-12-20T05:59:55.981Z,11.24
2022-12-20T06:02:37.136Z,11.12
2022-12-20T06:05:10.923Z,11.15
2022-12-20T06:07:45.193Z,11.24
2022-12-20T06:10:21.749Z,11.25
2022-12-20T06:13:02.261Z,11.13
2022-12-20T06:15:39.581Z,11.22
2022-12-20T06:18:12.801Z,11.23
2022-12-20T06:20:53.499Z,11.24
2022-12-20T06:23:29.180Z,11.28
2022-12-20T06:26:12.564Z,11.26
2022-12-20T06:28:54.740Z,11.28
2022-12-20T06:31:34.908Z,11.30
2022-12-20T06:34:09.249Z,11.28
2022-12-20T06:36:46.028Z,11.22
2022-12-20T06:39:29.589Z,11.27
2022-12-20T06:42:09.653Z,11.27
2022-12-20T06:44:45.013Z,11.09
2022-12-20T06:47:18.470Z,11.22
2022-12-20T06:49:51.666Z,11.20
2022-12-20T06:52:28.151Z,11.18
2022-12-20T06:55:01.455Z,11.13
2022-12-20T06:57:37.657Z,11.07
2022-12-20T07:00:12.816Z,11.15
2022-12-20T07:02:45.856Z,11.25
2022-12-20T07:05:19.151Z,11.22
2022-12-20T07:07:51.915Z,11.23
2022-12-20T07:10:24.696Z,11.24
2022-12-20T07:12:58.920Z,11.22
2022-12-20T07:15:31.649Z,11.20
2022-12-20T07:18:06.851Z,11.22
2022-12-20T07:20:40.483Z,11.19
2022-12-20T07:23:13.265Z,11.20
2022-12-20T07:25:54.537Z,11.21
2022-12-20T07:28:29.343Z,11.28
2022-12-20T07:31:04.439Z,11.26
2022-12-20T07:33:38.867Z,11.17
2022-12-20T07:36:16.115Z,11.18
2022-12-20T07:38:52.670Z,11.22
2022-12-20T07:41:31.333Z,11.26
2022-12-20T07:44:19.637Z,11.30
2022-12-20T07:46:58.749Z,11.13
2022-12-20T07:49:35.334Z,11.15
2022-12-20T07:52:13.639Z,11.20
2022-12-20T07:54:52.809Z,11.19
2022-12-20T07:57:31.917Z,11.30
2022-12-20T08:00:08.025Z,11.30
2022-12-20T08:02:51.311Z,11.40
2022-12-20T08:05:26.153Z,11.39
2022-12-20T08:08:04.865Z,11.26
2022-12-20T08:10:39.204Z,11.34
2022-12-20T08:13:12.396Z,11.37
2022-12-20T08:15:46.866Z,11.25
2022-12-20T08:18:21.136Z,11.39
2022-12-20T08:20:56.642Z,11.27
2022-12-20T08:23:35.815Z,11.29
2022-12-20T08:26:09.681Z,11.34
2022-12-20T08:28:42.829Z,11.34
2022-12-20T08:31:17.423Z,11.48
2022-12-20T08:33:51.033Z,11.47
2022-12-20T08:36:24.636Z,11.44
2022-12-20T08:38:57.935Z,11.31
2022-12-20T08:41:32.119Z,11.28
2022-12-20T08:44:05.472Z,11.45
2022-12-20T08:46:39.966Z,11.32
2022-12-20T08:49:13.071Z,11.25
2022-12-20T08:51:46.090Z,11.44
2022-12-20T08:54:19.043Z,11.34
2022-12-20T08:56:52.598Z,11.28
2022-12-20T08:59:26.277Z,11.34
2022-12-20T09:02:02.033Z,11.42
2022-12-20T09:04:35.149Z,11.42
2022-12-20T09:07:08.306Z,11.39
2022-12-20T09:09:41.565Z,11.38
2022-12-20T09:12:16.148Z,11.25
2022-12-20T09:14:53.100Z,11.21
2022-12-20T09:17:30.005Z,11.27
2022-12-20T09:20:02.937Z,11.27
2022-12-20T09:22:37.941Z,11.26
2022-12-20T09:25:23.326Z,11.34
2022-12-20T09:28:07.886Z,11.38
2022-12-20T09:30:41.313Z,11.35
2022-12-20T09:33:16.466Z,11.53
2022-12-20T09:35:49.421Z,11.62
2022-12-20T09:38:22.565Z,11.46
2022-12-20T09:40:58.053Z,11.55
2022-12-20T09:43:31.363Z,11.56
2022-12-20T09:46:05.014Z,11.60
2022-12-20T09:48:40.950Z,11.47
2022-12-20T09:51:43.094Z,11.54
2022-12-20T09:54:27.147Z,11.47
2022-12-20T09:57:10.916Z,11.49
2022-12-20T09:59:49.862Z,11.54
2022-12-20T10:05:27.206Z,11.59
2022-12-20T10:08:11.594Z,11.70
2022-12-20T10:10:57.779Z,11.52
2022-12-20T10:13:43.685Z,11.57
2022-12-20T10:16:34.399Z,11.61
2022-12-20T10:19:22.622Z,11.65
2022-12-20T10:22:15.717Z,11.68
2022-12-20T10:25:01.632Z,11.68
2022-12-20T10:27:38.832Z,11.72
2022-12-20T10:30:15.893Z,11.75
2022-12-20T10:32:53.166Z,11.86
2022-12-20T10:35:32.152Z,11.77
2022-12-20T10:38:12.655Z,11.81
2022-12-20T10:44:01.822Z,11.85
2022-12-20T10:46:42.132Z,11.84
2022-12-20T10:49:31.627Z,11.73
2022-12-20T10:52:16.982Z,11.72
2022-12-20T10:54:51.123Z,11.84
2022-12-20T10:57:28.345Z,11.73
2022-12-20T11:00:06.139Z,11.80
2022-12-20T11:02:44.734Z,11.70
2022-12-20T11:05:25.903Z,11.79
2022-12-20T11:08:34.635Z,11.88
2022-12-20T11:11:15.149Z,11.88
2022-12-20T11:13:50.025Z,11.80
2022-12-20T11:16:37.925Z,11.81
2022-12-20T11:19:43.802Z,11.82
2022-12-20T11:22:32.431Z,11.96
2022-12-20T11:25:21.307Z,11.89
2022-12-20T11:28:11.904Z,11.99
2022-12-20T11:30:55.306Z,11.94
2022-12-20T11:33:42.515Z,11.91
2022-12-20T11:36:26.470Z,11.92
2022-12-20T11:39:08.212Z,11.92
2022-12-20T11:41:47.835Z,11.97
2022-12-20T11:44:30.683Z,11.97
2022-12-20T11:47:26.973Z,11.95
2022-12-20T11:50:13.176Z,12.01
2022-12-20T11:52:52.074Z,12.02
2022-12-20T11:55:29.882Z,12.06
2022-12-20T11:58:18.578Z,12.01
2022-12-20T12:00:58.443Z,12.06
2022-12-20T12:03:35.169Z,11.94
2022-12-20T12:06:13.185Z,12.00
2022-12-20T12:08:50.090Z,11.96
2022-12-20T12:14:31.236Z,12.00
2022-12-20T12:17:14.230Z,12.01
2022-12-20T12:19:52.021Z,12.07
2022-12-20T12:22:31.706Z,12.12
2022-12-20T12:25:11.400Z,12.11
2022-12-20T12:27:44.409Z,12.08
2022-12-20T12:30:17.607Z,12.06
2022-12-20T12:32:58.033Z,12.11
2022-12-20T12:36:05.214Z,12.13
2022-12-20T12:39:02.080Z,12.15
2022-12-20T12:41:53.560Z,12.13
2022-12-20T12:44:43.495Z,12.11
2022-12-20T12:47:25.835Z,12.06
2022-12-20T12:50:00.096Z,12.11
2022-12-20T12:52:52.872Z,12.13
2022-12-20T12:55:43.591Z,12.05
2022-12-20T12:58:46.600Z,11.95
2022-12-20T13:01:49.681Z,12.04
2022-12-20T13:04:29.053Z,12.17
2022-12-20T13:07:24.994Z,12.15
2022-12-20T13:09:57.735Z,12.19
2022-12-20T13:12:58.841Z,12.15
2022-12-20T13:16:06.445Z,12.06
2022-12-20T13:18:39.471Z,12.22
2022-12-20T13:21:19.329Z,12.26
2022-12-20T13:24:37.922Z,12.23
2022-12-20T13:27:36.560Z,12.26
2022-12-20T13:30:28.736Z,12.27
2022-12-20T13:33:39.093Z,12.18
2022-12-20T13:36:32.684Z,12.26
2022-12-20T13:39:35.714Z,12.25
2022-12-20T13:42:24.929Z,12.21
2022-12-20T13:44:58.245Z,12.27
2022-12-20T13:47:39.693Z,12.26
2022-12-20T13:50:35.621Z,12.21
2022-12-20T13:53:18.225Z,12.23
2022-12-20T13:55:52.561Z,12.16
2022-12-20T13:58:28.747Z,12.22
2022-12-20T14:01:07.098Z,12.21
2022-12-20T14:03:42.903Z,12.15
2022-12-20T14:06:22.914Z,12.19
2022-12-20T14:08:59.210Z,12.20
2022-12-20T14:11:33.527Z,12.20
2022-12-20T14:14:13.954Z,12.20
2022-12-20T14:16:46.847Z,12.21
2022-12-20T14:19:19.557Z,12.18
2022-12-20T14:21:53.296Z,12.25
2022-12-20T14:24:28.879Z,12.21
2022-12-20T14:27:03.210Z,12.20
2022-12-20T14:29:36.262Z,12.15
2022-12-20T14:32:19.675Z,12.22
2022-12-20T14:34:55.350Z,12.13
2022-12-20T14:37:31.527Z,12.18
2022-12-20T14:40:18.066Z,12.14
2022-12-20T14:42:52.868Z,12.12
2022-12-20T14:45:28.858Z,12.14
2022-12-20T14:48:09.425Z,12.11
2022-12-20T14:50:54.217Z,12.20
2022-12-20T14:53:29.895Z,12.14
2022-12-20T14:56:06.349Z,12.17
2022-12-20T14:58:44.045Z,12.15
2022-12-20T15:01:22.209Z,12.14
2022-12-20T15:03:59.032Z,12.06
2022-12-20T15:06:39.478Z,12.13
2022-12-20T15:09:13.313Z,12.06
2022-12-20T15:11:48.152Z,12.12
2022-12-20T15:14:38.061Z,12.13
2022-12-20T15:17:13.393Z,12.08
2022-12-20T15:19:49.687Z,12.13
2022-12-20T15:22:26.000Z,12.15
2022-12-20T15:24:59.730Z,12.12
2022-12-20T15:27:37.174Z,12.18
2022-12-20T15:30:18.736Z,12.14
2022-12-20T15:32:55.623Z,12.06
2022-12-20T15:35:29.594Z,12.16
2022-12-20T15:38:02.625Z,11.96
2022-12-20T15:40:37.519Z,11.88
2022-12-20T15:43:14.470Z,11.98
2022-12-20T15:45:52.021Z,12.03
2022-12-20T15:48:25.064Z,12.17
2022-12-20T15:50:59.148Z,12.40
2022-12-20T15:53:36.118Z,12.51
2022-12-20T15:56:27.257Z,12.38
2022-12-20T15:59:12.604Z,12.28
2022-12-20T16:02:00.751Z,12.25
2022-12-20T16:04:34.325Z,12.19
2022-12-20T16:07:12.539Z,12.26
2022-12-20T16:09:47.318Z,12.20
2022-12-20T16:12:25.308Z,12.26
2022-12-20T16:15:01.267Z,12.25
2022-12-20T16:17:36.387Z,12.26
2022-12-20T16:20:14.732Z,12.29
2022-12-20T16:22:48.415Z,12.27
2022-12-20T16:25:31.115Z,12.27
2022-12-20T16:28:04.969Z,12.29
2022-12-20T16:30:38.516Z,12.27
2022-12-20T16:33:21.252Z,12.31
2022-12-20T16:36:05.744Z,12.24
2022-12-20T16:38:39.231Z,12.32
2022-12-20T16:41:18.432Z,12.33
2022-12-20T16:43:55.597Z,12.35
2022-12-20T16:46:32.685Z,12.36
2022-12-20T16:49:07.413Z,12.16
2022-12-20T16:51:45.667Z,12.12
2022-12-20T16:54:21.379Z,12.11
2022-12-20T16:56:56.815Z,12.13
2022-12-20T16:59:30.104Z,12.12
2022-12-20T17:02:15.273Z,12.11
2022-12-20T17:04:55.045Z,12.06
2022-12-20T17:07:30.457Z,12.10
2022-12-20T17:10:03.886Z,12.18
2022-12-20T17:12:36.961Z,12.18
2022-12-20T17:15:13.648Z,12.18
2022-12-20T17:17:47.948Z,12.09
2022-12-20T17:20:25.040Z,12.06
2022-12-20T17:26:16.938Z,12.04
2022-12-20T17:28:59.187Z,12.20
2022-12-20T17:31:41.376Z,12.13
2022-12-20T17:34:35.450Z,12.08
2022-12-20T17:37:20.584Z,12.10
2022-12-20T17:40:08.764Z,12.11
2022-12-20T17:42:58.154Z,12.13
2022-12-20T17:45:44.611Z,12.11
2022-12-20T17:48:32.128Z,12.14
2022-12-20T17:51:19.357Z,12.10
2022-12-20T17:54:06.357Z,12.12
2022-12-20T17:56:39.704Z,12.15
2022-12-20T17:59:14.187Z,12.17
2022-12-20T18:01:48.266Z,12.12
2022-12-20T18:04:22.570Z,12.13
2022-12-20T18:06:57.400Z,12.15
2022-12-20T18:09:35.420Z,12.13
2022-12-20T18:12:13.780Z,12.12
2022-12-20T18:14:52.451Z,12.14
2022-12-20T18:17:34.640Z,12.12
2022-12-20T18:20:10.397Z,12.13
2022-12-20T18:22:43.396Z,12.12
2022-12-20T18:25:20.984Z,12.09
2022-12-20T18:27:55.396Z,12.12
2022-12-20T18:30:28.904Z,12.11
2022-12-20T18:33:01.905Z,12.02
2022-12-20T18:35:37.739Z,12.07
2022-12-20T18:38:10.852Z,12.07
2022-12-20T18:40:47.262Z,12.06
2022-12-20T18:43:22.249Z,12.05
2022-12-20T18:45:57.992Z,12.07
2022-12-20T18:48:31.095Z,12.00
2022-12-20T18:51:04.284Z,11.98
2022-12-20T18:53:37.899Z,11.94
2022-12-20T18:56:15.677Z,11.97
2022-12-20T18:58:51.798Z,12.00
2022-12-20T19:01:26.860Z,11.94
2022-12-20T19:04:02.697Z,11.89
2022-12-20T19:06:38.918Z,11.95
2022-12-20T19:09:16.223Z,11.93
2022-12-20T19:11:56.643Z,11.91
2022-12-20T19:14:30.809Z,11.89
2022-12-20T19:17:04.395Z,11.91
2022-12-20T19:19:40.448Z,11.89
2022-12-20T19:22:17.483Z,11.91
2022-12-20T19:24:53.567Z,11.90
2022-12-20T19:27:28.162Z,11.92
2022-12-20T19:30:05.250Z,11.85
2022-12-20T19:32:38.805Z,11.86
2022-12-20T19:35:52.965Z,11.84
2022-12-20T19:38:10.672Z,11.79
2022-12-20T19:40:43.810Z,11.79
2022-12-20T19:43:17.963Z,11.80
2022-12-20T19:45:51.059Z,11.80
2022-12-20T19:48:24.361Z,11.76
2022-12-20T19:51:06.617Z,11.77
2022-12-20T19:53:45.719Z,11.72
2022-12-20T19:56:21.484Z,11.72
2022-12-20T19:58:56.429Z,11.70
2022-12-20T20:01:30.431Z,11.73
2022-12-20T20:04:05.261Z,11.64
2022-12-20T20:06:38.307Z,11.64
2022-12-20T20:09:14.161Z,11.65
2022-12-20T20:11:47.687Z,11.61
2022-12-20T20:14:22.837Z,11.61
2022-12-20T20:16:56.020Z,11.63
2022-12-20T20:19:29.313Z,11.58
2022-12-20T20:22:02.563Z,11.57
2022-12-20T20:24:35.755Z,11.61
2022-12-20T20:27:08.748Z,11.48
2022-12-20T20:29:43.058Z,11.57
2022-12-20T20:32:15.982Z,11.53
2022-12-20T20:34:49.715Z,11.56
2022-12-20T20:37:22.664Z,11.53
2022-12-20T20:39:55.476Z,11.51
2022-12-20T20:42:28.296Z,11.53
2022-12-20T20:45:05.565Z,11.50
2022-12-20T20:47:38.417Z,11.48
2022-12-20T20:50:12.006Z,11.48
2022-12-20T20:52:45.138Z,11.46
2022-12-20T20:55:18.215Z,11.49
2022-12-20T20:57:52.817Z,11.46
2022-12-20T21:00:29.282Z,11.43
2022-12-20T21:03:02.510Z,11.41
2022-12-20T21:06:14.166Z,11.43
2022-12-20T21:08:29.280Z,11.37
2022-12-20T21:11:06.390Z,11.38
2022-12-20T21:13:41.417Z,11.39
2022-12-20T21:16:21.059Z,11.41
2022-12-20T21:18:55.248Z,11.41
2022-12-20T21:21:28.579Z,11.36
2022-12-20T21:24:01.774Z,11.42
2022-12-20T21:26:40.562Z,11.40
2022-12-20T21:29:13.868Z,11.37
2022-12-20T21:31:48.328Z,11.33
2022-12-20T21:34:21.717Z,11.28
2022-12-20T21:36:54.736Z,11.33
2022-12-20T21:39:29.891Z,11.34
2022-12-20T21:42:05.184Z,11.27
2022-12-20T21:44:38.353Z,11.22
2022-12-20T21:47:12.960Z,11.22
2022-12-20T21:49:46.199Z,11.16
2022-12-20T21:52:23.247Z,11.21
2022-12-20T21:55:00.544Z,11.29
2022-12-20T21:57:34.394Z,11.23
2022-12-20T22:00:11.209Z,11.26
2022-12-20T22:02:47.160Z,11.25
2022-12-20T22:05:20.516Z,11.11
2022-12-20T22:07:53.739Z,11.15
2022-12-20T22:10:27.852Z,11.06
2022-12-20T22:13:01.390Z,11.08
2022-12-20T22:15:34.892Z,11.02
2022-12-20T22:18:12.712Z,11.02
2022-12-20T22:20:46.531Z,10.96
2022-12-20T22:23:19.594Z,11.00
2022-12-20T22:25:52.406Z,10.95
2022-12-20T22:28:25.657Z,10.95
2022-12-20T22:31:00.645Z,10.91
2022-12-20T22:33:35.813Z,10.96
2022-12-20T22:36:10.139Z,10.94
2022-12-20T22:38:46.677Z,10.96
2022-12-20T22:41:22.465Z,10.93
2022-12-20T22:43:56.096Z,10.91
2022-12-20T22:46:30.294Z,10.86
2022-12-20T22:49:04.839Z,10.95
2022-12-20T22:51:38.081Z,10.95
2022-12-20T22:54:11.160Z,10.99
2022-12-20T22:56:46.574Z,10.95
2022-12-20T22:59:19.661Z,10.95
2022-12-20T23:01:52.706Z,10.90
2022-12-20T23:04:27.349Z,10.83
2022-12-20T23:07:00.269Z,10.73
2022-12-20T23:09:33.179Z,10.71
2022-12-20T23:12:23.939Z,10.72
2022-12-20T23:15:17.131Z,10.72
2022-12-20T23:17:50.051Z,10.68
2022-12-20T23:20:41.958Z,10.68
2022-12-20T23:23:15.172Z,10.71
2022-12-20T23:25:48.539Z,10.69
2022-12-20T23:28:23.662Z,10.64
2022-12-20T23:30:56.766Z,10.64
2022-12-20T23:33:29.688Z,10.59
2022-12-20T23:36:06.256Z,10.60
2022-12-20T23:38:40.100Z,10.65
2022-12-20T23:41:15.600Z,10.64
2022-12-20T23:43:48.336Z,10.52
2022-12-20T23:46:21.907Z,10.46
2022-12-20T23:48:54.990Z,10.41
2022-12-20T23:51:28.947Z,10.42
2022-12-20T23:54:01.890Z,10.41
2022-12-20T23:56:34.496Z,10.41
2022-12-20T23:59:07.448Z,10.38
